createdAt,value
2018-04-23T00:00:34.357Z,8.13
2018-04-23T00:03:01.892Z,8.77
2018-04-23T00:05:30.179Z,9.03
2018-04-23T00:07:57.751Z,8.90
2018-04-23T00:10:25.331Z,8.80
2018-04-23T00:12:52.862Z,9.27
2018-04-23T00:15:21.125Z,9.40
2018-04-23T00:17:48.678Z,8.87
2018-04-23T00:20:16.225Z,9.30
2018-04-23T00:22:43.747Z,9.10
2018-04-23T00:25:11.513Z,9.00
2018-04-23T00:27:39.792Z,9.57
2018-04-23T00:30:07.326Z,9.00
2018-04-23T00:32:34.921Z,9.20
2018-04-23T00:35:02.443Z,8.87
2018-04-23T00:37:29.977Z,8.67
2018-04-23T00:39:57.519Z,8.37
2018-04-23T00:42:25.029Z,8.93
2018-04-23T00:44:53.330Z,9.13
2018-04-23T00:47:20.858Z,7.80
2018-04-23T00:49:49.142Z,8.73
2018-04-23T00:52:17.439Z,8.63
2018-04-23T00:54:45.118Z,8.13
2018-04-23T00:57:12.622Z,8.67
2018-04-23T00:59:40.169Z,8.50
2018-04-23T01:02:07.706Z,8.77
2018-04-23T01:04:35.225Z,7.30
2018-04-23T01:07:02.764Z,8.03
2018-04-23T01:09:30.270Z,8.13
2018-04-23T01:11:57.783Z,8.50
2018-04-23T01:14:25.310Z,8.93
2018-04-23T01:16:52.849Z,7.23
2018-04-23T01:19:20.382Z,7.83
2018-04-23T01:21:47.922Z,7.27
2018-04-23T01:24:15.461Z,8.10
2018-04-23T01:26:43.015Z,8.03
2018-04-23T01:29:10.543Z,9.07
2018-04-23T01:31:38.079Z,9.37
2018-04-23T01:34:06.377Z,8.57
2018-04-23T01:36:34.674Z,8.97
2018-04-23T01:39:02.185Z,9.20
2018-04-23T01:41:30.592Z,7.13
2018-04-23T01:43:58.158Z,9.43
2018-04-23T01:46:26.436Z,9.90
2018-04-23T01:48:54.787Z,8.77
2018-04-23T01:51:22.310Z,8.93
2018-04-23T01:53:49.818Z,10.00
2018-04-23T01:56:18.115Z,9.67
2018-04-23T01:58:45.663Z,9.30
2018-04-23T02:01:14.003Z,9.20
2018-04-23T02:03:41.505Z,8.77
2018-04-23T02:06:09.069Z,9.70
2018-04-23T02:08:37.348Z,8.50
2018-04-23T02:11:05.618Z,8.30
2018-04-23T02:13:33.153Z,9.97
2018-04-23T02:16:00.674Z,9.33
2018-04-23T02:18:28.169Z,9.47
2018-04-23T02:20:55.724Z,9.90
2018-04-23T02:23:23.255Z,9.83
2018-04-23T02:25:50.753Z,9.47
2018-04-23T02:28:18.314Z,9.50
2018-04-23T02:30:45.850Z,9.43
2018-04-23T02:33:13.469Z,9.80
2018-04-23T02:35:41.782Z,9.83
2018-04-23T02:38:09.306Z,10.50
2018-04-23T02:40:37.592Z,10.20
2018-04-23T02:43:05.134Z,9.80
2018-04-23T02:45:33.438Z,10.13
2018-04-23T02:48:01.052Z,10.00
2018-04-23T02:50:28.587Z,9.80
2018-04-23T02:52:56.149Z,10.13
2018-04-23T02:55:23.665Z,10.43
2018-04-23T02:57:51.974Z,10.73
2018-04-23T03:00:19.484Z,10.13
2018-04-23T03:02:47.012Z,10.37
2018-04-23T03:05:14.581Z,10.37
2018-04-23T03:07:42.139Z,10.17
2018-04-23T03:10:09.683Z,9.63
2018-04-23T03:12:37.247Z,9.70
2018-04-23T03:15:04.945Z,10.33
2018-04-23T03:17:32.478Z,10.20
2018-04-23T03:20:00.027Z,9.70
2018-04-23T03:22:27.569Z,10.13
2018-04-23T03:24:55.108Z,10.63
2018-04-23T03:27:23.401Z,10.00
2018-04-23T03:29:51.721Z,9.60
2018-04-23T03:32:19.246Z,9.93
2018-04-23T03:34:46.795Z,10.33
2018-04-23T03:37:14.351Z,10.30
2018-04-23T03:39:41.902Z,10.60
2018-04-23T03:42:10.193Z,10.03
2018-04-23T03:44:37.757Z,10.13
2018-04-23T03:47:06.057Z,9.63
2018-04-23T03:49:33.566Z,9.53
2018-04-23T03:52:01.126Z,9.37
2018-04-23T03:54:29.105Z,9.37
2018-04-23T03:56:56.627Z,10.10
2018-04-23T03:59:24.175Z,10.00
2018-04-23T04:01:51.678Z,8.83
2018-04-23T04:04:19.191Z,9.60
2018-04-23T04:06:46.757Z,9.67
2018-04-23T04:09:14.293Z,9.40
2018-04-23T04:11:41.784Z,9.70
2018-04-23T04:14:21.088Z,8.87
2018-04-23T04:17:04.314Z,9.37
2018-04-23T04:19:31.897Z,9.10
2018-04-23T04:21:59.406Z,9.07
2018-04-23T04:24:26.917Z,9.83
2018-04-23T04:26:54.470Z,8.77
2018-04-23T04:29:22.849Z,9.30
2018-04-23T04:31:50.424Z,10.20
2018-04-23T04:34:17.933Z,9.60
2018-04-23T04:36:45.943Z,9.80
2018-04-23T04:39:13.475Z,9.40
2018-04-23T04:41:41.760Z,10.07
2018-04-23T04:44:09.270Z,10.20
2018-04-23T04:46:36.902Z,9.97
2018-04-23T04:49:04.422Z,11.17
2018-04-23T04:51:31.938Z,10.40
2018-04-23T04:53:59.466Z,10.43
2018-04-23T04:56:27.789Z,10.20
2018-04-23T04:58:55.303Z,9.80
2018-04-23T05:01:23.595Z,10.03
2018-04-23T05:03:51.870Z,9.87
2018-04-23T05:06:20.184Z,10.57
2018-04-23T05:08:47.730Z,10.57
2018-04-23T05:11:15.278Z,10.57
2018-04-23T05:13:42.827Z,10.37
2018-04-23T05:16:11.129Z,10.30
2018-04-23T05:18:38.640Z,10.90
2018-04-23T05:21:06.201Z,10.03
2018-04-23T05:23:33.749Z,10.20
2018-04-23T05:26:01.294Z,10.43
2018-04-23T05:28:28.850Z,9.93
2018-04-23T05:30:56.383Z,9.83
2018-04-23T05:33:23.953Z,9.90
2018-04-23T05:35:51.578Z,10.10
2018-04-23T05:38:19.900Z,9.83
2018-04-23T05:40:47.631Z,9.33
2018-04-23T05:43:15.945Z,9.30
2018-04-23T05:45:43.450Z,9.63
2018-04-23T05:48:11.020Z,10.40
2018-04-23T05:50:38.653Z,9.30
2018-04-23T05:53:06.159Z,9.80
2018-04-23T05:55:33.720Z,8.60
2018-04-23T05:58:01.247Z,8.00
2018-04-23T06:00:29.249Z,11.27
2018-04-23T06:02:57.539Z,10.60
2018-04-23T06:05:25.224Z,10.03
2018-04-23T06:07:52.748Z,10.37
2018-04-23T06:10:21.027Z,10.80
2018-04-23T06:12:48.606Z,11.43
2018-04-23T06:15:16.879Z,10.77
2018-04-23T06:17:44.407Z,11.33
2018-04-23T06:20:11.964Z,9.77
2018-04-23T06:22:39.514Z,10.80
2018-04-23T06:25:07.027Z,9.00
2018-04-23T06:27:34.580Z,10.90
2018-04-23T06:30:02.130Z,10.47
2018-04-23T06:32:29.695Z,10.93
2018-04-23T06:34:58.015Z,11.73
2018-04-23T06:37:25.530Z,11.80
2018-04-23T06:39:53.840Z,9.17
2018-04-23T06:42:21.378Z,11.67
2018-04-23T06:44:48.925Z,10.77
2018-04-23T06:47:17.222Z,11.47
2018-04-23T06:49:44.843Z,10.97
2018-04-23T06:52:12.356Z,11.60
2018-04-23T06:54:39.866Z,11.50
2018-04-23T06:57:07.414Z,11.23
2018-04-23T06:59:34.997Z,12.50
2018-04-23T07:02:02.506Z,11.47
2018-04-23T07:04:30.034Z,9.90
2018-04-23T07:06:57.549Z,10.77
2018-04-23T07:09:25.073Z,10.97
2018-04-23T07:11:52.620Z,11.40
2018-04-23T07:14:20.144Z,10.77
2018-04-23T07:16:47.667Z,11.77
2018-04-23T07:19:15.208Z,10.23
2018-04-23T07:21:42.713Z,9.97
2018-04-23T07:24:10.250Z,10.30
2018-04-23T07:26:37.754Z,11.53
2018-04-23T07:29:05.274Z,12.13
2018-04-23T07:31:32.803Z,8.40
2018-04-23T07:34:01.098Z,10.43
2018-04-23T07:36:28.614Z,11.40
2018-04-23T07:38:56.145Z,10.33
2018-04-23T07:41:23.677Z,9.13
2018-04-23T07:43:51.193Z,8.60
2018-04-23T07:46:19.539Z,8.43
2018-04-23T07:48:47.100Z,9.97
2018-04-23T07:51:14.633Z,10.40
2018-04-23T07:53:42.179Z,11.77
2018-04-23T07:56:09.705Z,10.27
2018-04-23T07:58:37.266Z,10.50
2018-04-23T08:01:04.790Z,11.50
2018-04-23T08:03:33.074Z,10.43
2018-04-23T08:06:00.608Z,10.03
2018-04-23T08:08:28.223Z,10.17
2018-04-23T08:10:55.741Z,10.17
2018-04-23T08:13:23.250Z,8.07
2018-04-23T08:15:50.808Z,9.77
2018-04-23T08:18:18.335Z,10.30
2018-04-23T08:20:45.858Z,9.40
2018-04-23T08:23:13.407Z,7.53
2018-04-23T08:25:40.942Z,9.83
2018-04-23T08:28:08.452Z,10.33
2018-04-23T08:30:35.992Z,9.90
2018-04-23T08:33:03.497Z,8.23
2018-04-23T08:35:31.006Z,9.77
2018-04-23T08:37:59.323Z,9.73
2018-04-23T08:40:26.873Z,10.20
2018-04-23T08:42:54.430Z,11.07
2018-04-23T08:45:22.725Z,6.67
2018-04-23T08:47:50.230Z,12.43
2018-04-23T08:50:17.764Z,12.23
2018-04-23T08:52:45.298Z,15.63
2018-04-23T08:55:12.818Z,16.60
2018-04-23T08:57:40.336Z,16.97
2018-04-23T09:00:08.628Z,14.83
2018-04-23T09:02:36.200Z,13.93
2018-04-23T09:05:03.792Z,13.37
2018-04-23T09:07:32.150Z,15.07
2018-04-23T09:09:59.672Z,16.23
2018-04-23T09:12:27.174Z,16.10
2018-04-23T09:14:54.734Z,14.00
2018-04-23T09:17:22.254Z,16.13
2018-04-23T09:19:49.758Z,18.23
2018-04-23T09:22:18.017Z,17.70
2018-04-23T09:24:47.436Z,18.30
2018-04-23T09:27:14.898Z,22.33
2018-04-23T09:29:42.437Z,19.50
2018-04-23T09:32:09.996Z,20.17
2018-04-23T09:34:37.497Z,18.57
2018-04-23T09:37:05.015Z,19.10
2018-04-23T09:39:33.202Z,15.57
2018-04-23T09:42:00.710Z,16.73
2018-04-23T09:44:28.239Z,19.17
2018-04-23T09:46:55.791Z,18.90
2018-04-23T09:49:23.324Z,21.13
2018-04-23T09:51:50.846Z,19.83
2018-04-23T09:54:19.266Z,20.37
2018-04-23T09:56:46.869Z,18.87
2018-04-23T09:59:14.383Z,19.90
2018-04-23T10:01:47.622Z,20.27
2018-04-23T10:04:24.257Z,18.97
2018-04-23T10:06:51.785Z,19.73
2018-04-23T10:09:19.308Z,19.73
2018-04-23T10:11:46.817Z,20.83
2018-04-23T10:14:14.354Z,19.53
2018-04-23T10:16:41.886Z,20.73
2018-04-23T10:19:09.414Z,19.93
2018-04-23T10:21:37.066Z,18.53
2018-04-23T10:24:04.591Z,16.23
2018-04-23T10:26:32.156Z,16.93
2018-04-23T10:29:00.434Z,17.73
2018-04-23T10:31:28.768Z,14.07
2018-04-23T10:33:56.275Z,17.53
2018-04-23T10:36:23.794Z,14.43
2018-04-23T10:38:51.329Z,18.17
2018-04-23T10:41:18.887Z,17.03
2018-04-23T10:43:46.395Z,15.57
2018-04-23T10:46:13.926Z,16.70
2018-04-23T10:48:41.468Z,16.73
2018-04-23T10:51:09.090Z,22.30
2018-04-23T10:53:36.622Z,19.70
2018-04-23T10:56:04.152Z,19.67
2018-04-23T10:58:31.676Z,19.37
2018-04-23T11:00:59.295Z,20.00
2018-04-23T11:03:26.850Z,16.83
2018-04-23T11:05:54.365Z,19.77
2018-04-23T11:08:22.653Z,17.47
2018-04-23T11:10:50.240Z,17.40
2018-04-23T11:13:17.742Z,16.10
2018-04-23T11:15:45.276Z,19.37
2018-04-23T11:18:12.823Z,19.57
2018-04-23T11:20:40.366Z,16.10
2018-04-23T11:23:07.892Z,18.90
2018-04-23T11:25:35.438Z,21.87
2018-04-23T11:28:02.965Z,20.80
2018-04-23T11:30:30.502Z,26.87
2018-04-23T11:32:58.050Z,26.03
2018-04-23T11:35:25.572Z,21.47
2018-04-23T11:37:53.119Z,23.43
2018-04-23T11:40:20.678Z,24.43
2018-04-23T11:42:48.191Z,25.80
2018-04-23T11:45:16.477Z,24.43
2018-04-23T11:47:44.068Z,18.83
2018-04-23T11:50:11.598Z,20.77
2018-04-23T11:52:39.874Z,21.90
2018-04-23T11:55:07.424Z,22.27
2018-04-23T11:57:35.717Z,21.73
2018-04-23T12:00:03.256Z,21.73
2018-04-23T12:02:31.598Z,20.53
2018-04-23T12:04:59.157Z,20.77
2018-04-23T12:07:26.669Z,20.63
2018-04-23T12:09:54.938Z,18.27
2018-04-23T12:12:23.237Z,21.57
2018-04-23T12:14:50.773Z,22.47
2018-04-23T12:17:18.320Z,22.33
2018-04-23T12:19:45.877Z,22.37
2018-04-23T12:22:13.408Z,21.20
2018-04-23T12:24:40.935Z,19.50
2018-04-23T12:27:09.266Z,24.27
2018-04-23T12:29:36.809Z,23.67
2018-04-23T12:32:05.086Z,21.27
2018-04-23T12:34:32.623Z,21.40
2018-04-23T12:37:00.889Z,20.07
2018-04-23T12:39:28.420Z,20.27
2018-04-23T12:41:55.950Z,21.00
2018-04-23T12:44:23.468Z,21.90
2018-04-23T12:46:50.997Z,19.47
2018-04-23T12:49:18.526Z,15.80
2018-04-23T12:51:46.094Z,19.53
2018-04-23T12:54:14.351Z,16.87
2018-04-23T12:56:41.945Z,17.83
2018-04-23T12:59:09.455Z,17.13
2018-04-23T13:01:37.093Z,19.63
2018-04-23T13:04:05.422Z,18.23
2018-04-23T13:06:32.938Z,15.77
2018-04-23T13:09:01.214Z,15.50
2018-04-23T13:11:29.535Z,17.00
2018-04-23T13:13:57.049Z,17.43
2018-04-23T13:16:24.578Z,17.20
2018-04-23T13:18:52.105Z,15.70
2018-04-23T13:21:19.630Z,17.47
2018-04-23T13:23:47.143Z,16.87
2018-04-23T13:26:14.726Z,16.60
2018-04-23T13:28:42.253Z,17.80
2018-04-23T13:31:09.770Z,16.87
2018-04-23T13:33:37.315Z,15.20
2018-04-23T13:36:04.839Z,16.80
2018-04-23T13:38:32.365Z,15.83
2018-04-23T13:41:00.676Z,15.87
2018-04-23T13:43:28.282Z,13.77
2018-04-23T13:45:55.862Z,14.47
2018-04-23T13:48:24.192Z,15.93
2018-04-23T13:50:51.710Z,16.80
2018-04-23T13:53:19.993Z,16.00
2018-04-23T13:55:47.518Z,16.63
2018-04-23T13:58:15.054Z,16.73
2018-04-23T14:00:42.590Z,17.37
2018-04-23T14:03:10.127Z,16.47
2018-04-23T14:05:37.647Z,17.10
2018-04-23T14:08:05.206Z,16.17
2018-04-23T14:10:32.731Z,15.23
2018-04-23T14:13:00.246Z,14.27
2018-04-23T14:15:27.773Z,16.73
2018-04-23T14:17:55.318Z,16.40
2018-04-23T14:20:22.828Z,16.10
2018-04-23T14:22:50.369Z,12.40
2018-04-23T14:25:17.919Z,13.70
2018-04-23T14:27:45.435Z,13.60
2018-04-23T14:30:13.095Z,13.97
2018-04-23T14:32:41.425Z,14.23
2018-04-23T14:35:09.064Z,13.07
2018-04-23T14:37:36.610Z,13.87
2018-04-23T14:40:04.140Z,13.80
2018-04-23T14:42:31.668Z,11.83
2018-04-23T14:44:59.257Z,13.47
2018-04-23T14:47:26.781Z,12.53
2018-04-23T14:49:54.294Z,12.53
2018-04-23T14:52:21.839Z,15.50
2018-04-23T14:54:50.179Z,13.20
2018-04-23T14:57:17.687Z,15.53
2018-04-23T14:59:45.246Z,11.70
2018-04-23T15:02:12.818Z,13.53
2018-04-23T15:04:40.399Z,13.93
2018-04-23T15:07:07.997Z,13.60
2018-04-23T15:09:35.515Z,12.97
2018-04-23T15:12:03.050Z,12.40
2018-04-23T15:14:32.108Z,12.13
2018-04-23T15:16:59.621Z,14.53
2018-04-23T15:19:28.009Z,14.17
2018-04-23T15:21:55.534Z,14.47
2018-04-23T15:24:23.061Z,14.47
2018-04-23T15:26:50.680Z,14.37
2018-04-23T15:29:18.169Z,13.90
2018-04-23T15:31:45.690Z,13.07
2018-04-23T15:34:13.364Z,15.27
2018-04-23T15:36:40.925Z,13.43
2018-04-23T15:39:08.476Z,15.17
2018-04-23T15:41:36.026Z,14.10
2018-04-23T15:44:03.571Z,15.27
2018-04-23T15:46:31.083Z,14.70
2018-04-23T15:48:58.602Z,14.67
2018-04-23T15:51:26.164Z,15.20
2018-04-23T15:53:53.689Z,15.17
2018-04-23T15:56:21.209Z,15.37
2018-04-23T15:58:48.762Z,13.50
2018-04-23T16:01:17.047Z,13.90
2018-04-23T16:03:44.600Z,13.80
2018-04-23T16:06:12.878Z,14.37
2018-04-23T16:08:41.222Z,13.47
2018-04-23T16:11:08.795Z,14.00
2018-04-23T16:13:36.300Z,14.30
2018-04-23T16:16:03.865Z,11.93
2018-04-23T16:18:32.212Z,12.10
2018-04-23T16:21:00.559Z,13.20
2018-04-23T16:23:28.130Z,14.37
2018-04-23T16:25:55.671Z,13.57
2018-04-23T16:28:23.260Z,16.00
2018-04-23T16:30:50.784Z,14.63
2018-04-23T16:33:19.090Z,14.67
2018-04-23T16:35:46.624Z,13.80
2018-04-23T16:38:14.142Z,14.77
2018-04-23T16:40:41.702Z,15.90
2018-04-23T16:43:09.833Z,15.87
2018-04-23T16:45:37.362Z,15.50
2018-04-23T16:48:04.948Z,15.03
2018-04-23T16:50:32.465Z,15.90
2018-04-23T16:53:00.789Z,15.30
2018-04-23T16:55:28.328Z,16.37
2018-04-23T16:57:55.881Z,15.43
2018-04-23T17:00:23.445Z,16.20
2018-04-23T17:02:51.038Z,15.53
2018-04-23T17:05:18.558Z,14.00
2018-04-23T17:07:46.107Z,14.00
2018-04-23T17:10:13.766Z,13.97
2018-04-23T17:12:42.054Z,13.37
2018-04-23T17:15:09.567Z,13.60
2018-04-23T17:17:37.113Z,13.23
2018-04-23T17:20:04.678Z,13.50
2018-04-23T17:22:32.245Z,13.20
2018-04-23T17:24:59.798Z,13.00
2018-04-23T17:27:27.382Z,12.97
2018-04-23T17:29:54.887Z,12.83
2018-04-23T17:32:22.424Z,12.43
2018-04-23T17:34:49.941Z,12.50
2018-04-23T17:37:17.490Z,12.20
2018-04-23T17:39:45.060Z,11.90
2018-04-23T17:42:12.599Z,11.90
2018-04-23T17:44:40.115Z,10.43
2018-04-23T17:47:07.690Z,11.27
2018-04-23T17:49:35.252Z,11.20
2018-04-23T17:52:02.782Z,10.67
2018-04-23T17:54:30.352Z,10.63
2018-04-23T17:56:57.874Z,10.27
2018-04-23T17:59:25.431Z,10.77
2018-04-23T18:01:53.112Z,10.80
2018-04-23T18:04:20.704Z,9.90
2018-04-23T18:06:48.214Z,10.30
2018-04-23T18:09:15.758Z,10.50
2018-04-23T18:11:43.294Z,10.30
2018-04-23T18:14:10.849Z,10.57
2018-04-23T18:16:38.365Z,10.27
2018-04-23T18:19:05.939Z,10.83
2018-04-23T18:21:33.494Z,9.53
2018-04-23T18:24:01.774Z,10.23
2018-04-23T18:26:29.287Z,9.60
2018-04-23T18:28:56.972Z,10.30
2018-04-23T18:31:24.547Z,9.83
2018-04-23T18:33:52.073Z,9.30
2018-04-23T18:36:19.662Z,9.53
2018-04-23T18:38:47.195Z,9.57
2018-04-23T18:41:15.473Z,9.03
2018-04-23T18:43:43.026Z,8.27
2018-04-23T18:46:10.541Z,8.80
2018-04-23T18:48:38.048Z,8.30
2018-04-23T18:51:05.644Z,8.30
2018-04-23T18:53:33.182Z,8.15
2018-04-23T18:56:01.477Z,7.77
2018-04-23T18:58:29.036Z,8.80
2018-04-23T19:00:57.319Z,8.37
2018-04-23T19:03:24.851Z,8.20
2018-04-23T19:05:53.172Z,7.73
2018-04-23T19:08:21.225Z,8.33
2018-04-23T19:10:48.759Z,7.20
2018-04-23T19:13:16.376Z,7.73
2018-04-23T19:15:43.941Z,7.50
2018-04-23T19:18:11.451Z,7.00
2018-04-23T19:20:40.194Z,7.10
2018-04-23T19:23:07.771Z,6.33
2018-04-23T19:25:35.341Z,5.80
2018-04-23T19:28:02.921Z,6.33
2018-04-23T19:30:31.215Z,6.70
2018-04-23T19:32:59.499Z,5.83
2018-04-23T19:35:27.055Z,6.07
2018-04-23T19:37:55.409Z,5.90
2018-04-23T19:40:22.946Z,6.40
2018-04-23T19:42:50.457Z,6.13
2018-04-23T19:45:17.996Z,5.60
2018-04-23T19:47:45.541Z,5.80
2018-04-23T19:50:13.064Z,5.93
2018-04-23T19:52:40.597Z,6.23
2018-04-23T19:55:08.207Z,5.60
2018-04-23T19:57:35.744Z,5.70
2018-04-23T20:00:03.263Z,6.10
2018-04-23T20:02:30.856Z,6.40
2018-04-23T20:04:58.387Z,6.20
2018-04-23T20:07:25.964Z,6.37
2018-04-23T20:09:53.497Z,6.10
2018-04-23T20:12:21.013Z,5.93
2018-04-23T20:14:48.554Z,5.70
2018-04-23T20:17:16.108Z,6.63
2018-04-23T20:19:43.702Z,6.77
2018-04-23T20:22:11.221Z,6.90
2018-04-23T20:24:38.758Z,6.40
2018-04-23T20:27:06.300Z,6.37
2018-04-23T20:29:33.825Z,6.77
2018-04-23T20:32:01.376Z,7.40
2018-04-23T20:34:29.642Z,7.50
2018-04-23T20:36:57.917Z,6.97
2018-04-23T20:39:25.451Z,6.57
2018-04-23T20:41:53.022Z,6.13
2018-04-23T20:44:20.605Z,6.20
2018-04-23T20:46:48.091Z,6.97
2018-04-23T20:49:15.650Z,6.00
2018-04-23T20:51:43.212Z,5.33
2018-04-23T20:54:11.525Z,5.50
2018-04-23T20:56:39.036Z,5.13
2018-04-23T20:59:07.333Z,4.37
2018-04-23T21:01:34.870Z,4.40
2018-04-23T21:04:03.134Z,4.40
2018-04-23T21:06:31.418Z,4.10
2018-04-23T21:08:58.958Z,4.00
2018-04-23T21:11:28.219Z,3.80
2018-04-23T21:13:55.730Z,3.80
2018-04-23T21:16:24.127Z,3.87
2018-04-23T21:18:52.407Z,3.43
2018-04-23T21:21:19.905Z,3.10
2018-04-23T21:23:47.436Z,3.17
2018-04-23T21:26:14.973Z,3.07
2018-04-23T21:28:43.244Z,3.07
2018-04-23T21:31:11.343Z,2.90
2018-04-23T21:33:38.908Z,2.50
2018-04-23T21:36:06.432Z,2.70
2018-04-23T21:38:33.938Z,2.80
2018-04-23T21:41:01.555Z,2.53
2018-04-23T21:43:29.092Z,2.90
2018-04-23T21:45:56.616Z,2.57
2018-04-23T21:48:24.172Z,2.60
2018-04-23T21:50:51.678Z,2.43
2018-04-23T21:53:19.186Z,2.60
2018-04-23T21:55:46.711Z,2.60
2018-04-23T21:58:14.223Z,2.40
2018-04-23T22:00:41.730Z,2.70
2018-04-23T22:03:09.311Z,2.47
2018-04-23T22:05:36.843Z,2.53
2018-04-23T22:08:04.339Z,2.77
2018-04-23T22:10:31.872Z,2.43
2018-04-23T22:12:59.399Z,2.40
2018-04-23T22:15:26.991Z,2.57
2018-04-23T22:17:54.509Z,2.60
2018-04-23T22:20:22.067Z,2.63
2018-04-23T22:22:49.715Z,2.40
2018-04-23T22:25:17.226Z,2.60
2018-04-23T22:27:44.758Z,2.40
2018-04-23T22:30:12.290Z,2.90
2018-04-23T22:32:40.558Z,2.80
2018-04-23T22:35:08.863Z,2.10
2018-04-23T22:37:37.326Z,2.63
2018-04-23T22:40:04.834Z,2.60
2018-04-23T22:42:32.405Z,2.77
2018-04-23T22:44:59.919Z,2.47
2018-04-23T22:47:27.438Z,2.50
2018-04-23T22:49:54.954Z,2.70
2018-04-23T22:52:22.477Z,2.80
2018-04-23T22:54:50.753Z,2.73
2018-04-23T22:57:18.285Z,2.30
2018-04-23T22:59:45.832Z,2.30
2018-04-23T23:02:13.341Z,2.27
2018-04-23T23:04:40.862Z,2.20
2018-04-23T23:07:08.394Z,2.20
2018-04-23T23:09:35.909Z,2.53
2018-04-23T23:12:04.207Z,2.20
2018-04-23T23:14:31.746Z,2.30
2018-04-23T23:17:00.030Z,2.60
2018-04-23T23:19:27.618Z,2.20
2018-04-23T23:21:55.266Z,2.20
2018-04-23T23:24:22.759Z,2.10
2018-04-23T23:26:50.276Z,2.00
2018-04-23T23:29:18.559Z,2.23
2018-04-23T23:31:46.096Z,2.20
2018-04-23T23:34:13.600Z,2.30
2018-04-23T23:36:41.114Z,2.27
2018-04-23T23:39:08.648Z,2.40
2018-04-23T23:41:36.222Z,2.17
2018-04-23T23:44:03.762Z,2.23
2018-04-23T23:46:31.278Z,2.30
2018-04-23T23:48:58.791Z,1.87
2018-04-23T23:51:26.328Z,2.27
2018-04-23T23:53:53.836Z,2.00
2018-04-23T23:56:21.367Z,1.90
2018-04-23T23:58:48.975Z,2.20
